Time;durP1;ratioP1;P1;durP2;ratioP2;P2;SDS_P1;SDS_P2;PMS_P1;PMS_P2;Temp;Humidity;BMP_temperature;BMP_pressure;BME280_temperature;BME280_humidity;BME280_pressure;Samples;Min_cycle;Max_cycle;Signal;HPM_P1;HPM_P2
2022/03/18 00:00:21;;;;;;;11.15;8.90;;;;;;;1.38;100.00;62144.47;5022500;28;20249;-71
2022/03/18 00:02:49;;;;;;;12.35;9.63;;;;;;;1.46;100.00;62147.66;5023950;28;20218;-72
2022/03/18 00:05:18;;;;;;;11.73;10.07;;;;;;;1.55;100.00;62161.91;5011431;28;20200;-72
2022/03/18 00:07:45;;;;;;;11.07;8.75;;;;;;;1.56;100.00;62162.94;5010799;28;20558;-71
2022/03/18 00:10:13;;;;;;;12.52;8.70;;;;;;;1.56;100.00;62157.91;5022616;28;20211;-71
2022/03/18 00:12:40;;;;;;;10.68;8.60;;;;;;;1.57;100.00;62161.47;5025630;28;20241;-72
2022/03/18 00:15:09;;;;;;;10.80;8.20;;;;;;;1.57;100.00;62161.47;5024769;28;20245;-72
2022/03/18 00:17:36;;;;;;;12.23;9.68;;;;;;;1.59;100.00;62161.00;5024891;28;20428;-72
2022/03/18 00:20:04;;;;;;;11.75;8.88;;;;;;;1.65;100.00;62167.16;5023263;28;20203;-72
2022/03/18 00:22:32;;;;;;;12.02;9.18;;;;;;;1.67;100.00;62171.72;5025809;28;20223;-72
2022/03/18 00:24:59;;;;;;;12.07;9.45;;;;;;;1.50;100.00;62152.28;5025008;28;20198;-73
2022/03/18 00:27:27;;;;;;;11.75;9.10;;;;;;;1.43;100.00;62144.59;5013085;28;20235;-72
2022/03/18 00:29:54;;;;;;;12.93;8.95;;;;;;;1.07;100.00;62108.66;5018540;28;20199;-72
2022/03/18 00:32:22;;;;;;;13.18;9.05;;;;;;;1.21;100.00;62127.03;5025848;28;20528;-72
2022/03/18 00:34:49;;;;;;;9.00;7.95;;;;;;;1.20;100.00;62126.50;5025248;28;20245;-71
2022/03/18 00:37:15;;;;;;;11.00;8.55;;;;;;;1.10;100.00;62116.75;5023827;28;20469;-72
2022/03/18 00:39:44;;;;;;;11.63;9.05;;;;;;;1.22;100.00;62128.56;5023734;28;20203;-72
2022/03/18 00:42:12;;;;;;;9.98;8.85;;;;;;;1.25;100.00;62136.66;5024145;28;20227;-71
2022/03/18 00:44:39;;;;;;;14.50;9.73;;;;;;;1.22;100.00;62121.03;5025149;28;20213;-71
2022/03/18 00:51:59;;;;;;;10.98;8.93;;;;;;;1.23;100.00;62129.06;5023445;28;20289;-73
2022/03/18 00:52:39;;;;;;;11.27;9.35;;;;;;;0.99;100.00;62102.97;5024404;28;20413;-71
2022/03/18 00:55:08;;;;;;;12.60;9.38;;;;;;;1.00;100.00;62101.50;5025265;28;20199;-71
2022/03/18 00:57:36;;;;;;;11.60;9.27;;;;;;;0.94;100.00;62097.84;5021684;28;20504;-71
2022/03/18 01:00:05;;;;;;;12.48;10.05;;;;;;;0.94;100.00;62099.84;5015654;28;20207;-71
2022/03/18 01:02:32;;;;;;;12.13;8.90;;;;;;;0.80;100.00;62086.00;5015841;28;20222;-71
2022/03/18 01:04:59;;;;;;;16.30;10.48;;;;;;;0.79;100.00;62082.47;5023573;28;20199;-71
2022/03/18 01:07:26;;;;;;;13.40;9.40;;;;;;;0.99;100.00;62102.97;5022925;28;20437;-71
2022/03/18 01:09:52;;;;;;;12.55;9.52;;;;;;;1.10;100.00;62113.75;5007026;28;20547;-71
2022/03/18 01:12:21;;;;;;;11.70;9.63;;;;;;;1.19;100.00;62120.97;5017928;28;20281;-73
2022/03/18 01:14:47;;;;;;;11.20;8.82;;;;;;;1.01;100.00;62102.00;5021651;28;20199;-71
2022/03/18 01:17:15;;;;;;;11.55;9.05;;;;;;;1.10;100.00;62111.25;5022626;28;20238;-72
2022/03/18 01:19:42;;;;;;;14.45;9.95;;;;;;;0.94;100.00;62097.84;5023726;28;20265;-72
2022/03/18 01:22:10;;;;;;;12.07;9.38;;;;;;;0.95;100.00;62098.34;5023199;28;20218;-71
2022/03/18 01:24:37;;;;;;;13.95;9.25;;;;;;;0.91;100.00;62094.78;5023525;28;20245;-71
2022/03/18 01:27:04;;;;;;;12.52;9.20;;;;;;;1.00;100.00;62108.50;5022909;28;20238;-71
2022/03/18 01:29:33;;;;;;;13.98;9.95;;;;;;;1.10;100.00;62116.25;5024727;28;20202;-71
2022/03/18 01:32:01;;;;;;;13.23;10.77;;;;;;;1.13;100.00;62119.84;5024506;28;20549;-72
2022/03/18 01:34:28;;;;;;;13.57;10.38;;;;;;;1.08;100.00;62109.19;5019279;28;20249;-71
2022/03/18 01:36:55;;;;;;;12.82;8.85;;;;;;;1.03;100.00;62104.06;5022369;28;20453;-71
2022/03/18 01:39:23;;;;;;;10.07;9.02;;;;;;;1.10;100.00;62113.75;5024130;28;20265;-71
2022/03/18 01:41:51;;;;;;;12.38;9.23;;;;;;;1.09;100.00;62118.25;5023211;28;20257;-71
2022/03/18 01:44:19;;;;;;;12.90;9.70;;;;;;;1.15;100.00;62119.41;5007829;28;20199;-70
2022/03/18 01:46:48;;;;;;;14.93;11.15;;;;;;;1.07;100.00;62108.66;5023613;28;20266;-73
2022/03/18 01:49:15;;;;;;;11.60;9.35;;;;;;;1.19;100.00;62123.50;5013731;28;20370;-71
2022/03/18 01:51:41;;;;;;;12.52;10.13;;;;;;;1.10;100.00;62111.25;5021093;28;20265;-70
2022/03/18 01:56:55;;;;;;;12.52;9.50;;;;;;;1.06;100.00;62105.16;5021696;28;20284;-71
2022/03/18 01:59:21;;;;;;;12.55;9.75;;;;;;;1.02;100.00;62106.06;5021906;28;20206;-71
2022/03/18 02:01:51;;;;;;;12.38;9.70;;;;;;;0.92;100.00;62098.31;5023820;28;20234;-71
2022/03/18 02:04:18;;;;;;;11.23;9.98;;;;;;;0.93;100.00;62096.81;5024845;28;20207;-71
2022/03/18 02:06:44;;;;;;;11.40;9.35;;;;;;;0.86;100.00;62087.13;5024106;28;20219;-71
2022/03/18 02:09:11;;;;;;;13.52;9.95;;;;;;;0.81;100.00;62086.50;5024412;28;20430;-71
2022/03/18 02:11:39;;;;;;;11.38;9.75;;;;;;;0.66;100.00;62068.59;5027486;28;20198;-70
2022/03/18 02:14:06;;;;;;;12.73;10.13;;;;;;;0.73;100.00;62076.31;5028198;28;20199;-70
2022/03/18 02:16:33;;;;;;;13.30;10.68;;;;;;;0.71;100.00;62076.75;5023921;28;20211;-71
2022/03/18 02:19:02;;;;;;;18.63;11.13;;;;;;;0.80;100.00;62087.97;5023303;28;20269;-71
2022/03/18 02:21:30;;;;;;;17.05;10.65;;;;;;;0.65;100.00;62073.13;5025885;28;20518;-72
2022/03/18 02:23:58;;;;;;;15.75;11.25;;;;;;;0.66;100.00;62071.63;5023895;28;20199;-71
2022/03/18 02:26:25;;;;;;;13.32;11.02;;;;;;;0.59;100.00;62066.97;5018266;28;20203;-71
2022/03/18 02:28:53;;;;;;;18.13;11.95;;;;;;;0.62;100.00;62067.53;5022303;28;20306;-72
2022/03/18 02:31:21;;;;;;;16.30;11.63;;;;;;;0.65;100.00;62073.13;5024293;28;20198;-71
2022/03/18 02:33:47;;;;;;;16.67;12.68;;;;;;;0.59;100.00;62061.44;5022174;28;20226;-70
2022/03/18 02:36:14;;;;;;;16.73;11.85;;;;;;;0.57;100.00;62059.91;5022125;28;20202;-71
2022/03/18 02:38:42;;;;;;;16.73;11.98;;;;;;;0.49;100.00;62053.69;5022797;28;20268;-72
2022/03/18 02:41:11;;;;;;;18.23;13.55;;;;;;;0.34;100.00;62033.31;5022974;28;20213;-72
2022/03/18 02:43:39;;;;;;;18.63;12.52;;;;;;;0.57;100.00;62059.91;5005354;28;20227;-71
2022/03/18 02:46:06;;;;;;;21.25;14.00;;;;;;;0.52;100.00;62059.28;5013373;28;20206;-72
2022/03/18 02:48:33;;;;;;;18.35;12.68;;;;;;;0.56;100.00;62058.34;5022219;28;20234;-71
2022/03/18 02:50:59;;;;;;;17.88;13.18;;;;;;;0.70;100.00;62073.25;5020454;28;20216;-71
2022/03/18 02:53:26;;;;;;;17.52;12.18;;;;;;;0.57;100.00;62059.41;5017289;28;20222;-72
2022/03/18 02:55:54;;;;;;;19.25;13.32;;;;;;;0.44;100.00;62043.56;5021672;28;20526;-72
2022/03/18 02:58:23;;;;;;;17.05;12.45;;;;;;;0.55;100.00;62054.84;5017806;28;20229;-71
2022/03/18 03:00:50;;;;;;;17.80;13.60;;;;;;;0.44;100.00;62049.06;5020087;28;20222;-71
2022/03/18 03:03:17;;;;;;;16.67;12.32;;;;;;;0.39;100.00;62046.47;5022372;28;20404;-72
2022/03/18 03:08:28;;;;;;;19.00;12.52;;;;;;;0.65;100.00;62065.09;5021915;28;20261;-72
2022/03/18 03:10:55;;;;;;;16.58;12.95;;;;;;;0.77;100.00;62082.41;5016275;28;20267;-72
2022/03/18 03:13:24;;;;;;;16.83;12.15;;;;;;;0.84;100.00;62094.59;5023278;28;20219;-71
2022/03/18 03:15:51;;;;;;;17.70;12.57;;;;;;;0.88;100.00;62094.19;5022291;28;20557;-72
2022/03/18 03:18:18;;;;;;;17.63;12.75;;;;;;;0.89;100.00;62092.22;5022056;28;20265;-72
2022/03/18 03:20:45;;;;;;;17.50;13.40;;;;;;;0.97;100.00;62095.91;5020347;28;20214;-71
2022/03/18 03:23:12;;;;;;;19.13;13.45;;;;;;;0.97;100.00;62100.41;5021303;28;20210;-72
2022/03/18 03:25:38;;;;;;;19.00;13.95;;;;;;;0.69;100.00;62071.69;5022996;28;20468;-72
2022/03/18 03:28:05;;;;;;;21.35;14.00;;;;;;;0.70;100.00;62072.72;5021752;28;20280;-72
2022/03/18 03:30:33;;;;;;;23.55;14.45;;;;;;;0.65;100.00;62070.09;5019481;28;20207;-72
2022/03/18 03:33:00;;;;;;;25.67;14.30;;;;;;;0.47;100.00;62049.13;5022230;28;20227;-72
2022/03/18 03:35:27;;;;;;;21.23;13.52;;;;;;;0.48;100.00;62050.16;5023485;28;20205;-72
2022/03/18 03:37:54;;;;;;;22.58;14.23;;;;;;;0.48;100.00;62050.16;5021895;28;20281;-72
2022/03/18 03:40:21;;;;;;;21.85;14.77;;;;;;;0.44;100.00;62044.06;5021749;28;20203;-73
2022/03/18 03:42:48;;;;;;;23.55;14.15;;;;;;;0.65;100.00;62065.59;5025324;28;20214;-72
2022/03/18 03:45:15;;;;;;;19.05;13.23;;;;;;;0.42;100.00;62049.00;5026472;28;20202;-71
2022/03/18 03:47:44;;;;;;;22.38;14.32;;;;;;;0.34;100.00;62041.34;5026286;28;20238;-72
2022/03/18 03:50:11;;;;;;;21.50;14.95;;;;;;;0.29;100.00;62030.69;5023059;28;20202;-72
2022/03/18 03:52:38;;;;;;;24.05;13.73;;;;;;;0.42;100.00;62047.03;5022190;28;20294;-72
2022/03/18 03:55:06;;;;;;;21.63;14.07;;;;;;;0.52;100.00;62054.28;5028062;28;20214;-73
2022/03/18 03:57:33;;;;;;;18.55;12.57;;;;;;;0.51;100.00;62051.25;5027958;28;20290;-72
2022/03/18 04:00:00;;;;;;;18.40;13.35;;;;;;;0.54;100.00;62053.81;5026946;28;20386;-73
2022/03/18 04:02:27;;;;;;;20.48;13.75;;;;;;;0.41;100.00;62043.00;5025271;28;20253;-72
2022/03/18 04:04:57;;;;;;;21.85;12.85;;;;;;;0.60;100.00;62059.97;5024711;28;20215;-72
2022/03/18 04:07:26;;;;;;;18.05;12.20;;;;;;;0.61;100.00;62066.00;5025560;28;20462;-72
2022/03/18 04:09:54;;;;;;;19.95;13.13;;;;;;;0.55;100.00;62057.84;5023830;28;20558;-71
2022/03/18 04:12:21;;;;;;;20.50;12.88;;;;;;;0.45;100.00;62052.59;5025750;28;20235;-72
2022/03/18 04:14:49;;;;;;;16.25;10.88;;;;;;;0.28;100.00;62034.66;5024641;28;20242;-73
2022/03/18 04:17:16;;;;;;;17.55;12.15;;;;;;;0.08;100.00;62009.69;5016512;28;20236;-72
2022/03/18 04:19:43;;;;;;;17.33;11.80;;;;;;;0.19;100.00;62020.44;5025048;28;20198;-73
2022/03/18 04:22:11;;;;;;;17.40;12.07;;;;;;;0.23;100.00;62030.06;5026122;28;20222;-73
2022/03/18 04:24:38;;;;;;;15.45;11.82;;;;;;;0.25;100.00;62024.06;5025929;28;20210;-71
2022/03/18 04:27:05;;;;;;;16.17;10.85;;;;;;;0.26;100.00;62025.63;5026307;28;20227;-72
2022/03/18 04:29:32;;;;;;;13.75;10.25;;;;;;;0.18;100.00;62019.91;5015461;28;20231;-74
2022/03/18 04:31:59;;;;;;;13.88;10.18;;;;;;;-0.08;100.00;61990.78;5024352;28;20223;-73
2022/03/18 04:34:26;;;;;;;12.18;10.20;;;;;;;0.02;100.00;62000.53;5024959;28;20203;-72
2022/03/18 04:36:53;;;;;;;14.55;10.32;;;;;;;0.15;100.00;62019.34;5029484;28;20225;-73
2022/03/18 04:39:21;;;;;;;17.23;11.02;;;;;;;0.12;100.00;62016.28;5027907;28;20206;-73
2022/03/18 04:41:48;;;;;;;13.27;10.02;;;;;;;0.24;100.00;62031.09;5028816;28;20268;-73
2022/03/18 04:44:15;;;;;;;14.75;10.25;;;;;;;0.36;100.00;62043.38;5031099;28;20194;-74
2022/03/18 04:46:43;;;;;;;14.75;9.88;;;;;;;0.36;100.00;62043.38;5031115;28;20219;-72
2022/03/18 04:49:10;;;;;;;15.18;9.75;;;;;;;0.44;100.00;62044.06;5029774;28;20234;-72
2022/03/18 04:51:37;;;;;;;12.77;9.98;;;;;;;0.40;100.00;62041.97;5028870;28;20195;-72
2022/03/18 04:54:03;;;;;;;11.35;8.25;;;;;;;0.36;100.00;62035.88;5029814;28;20195;-73
2022/03/18 04:59:27;;;;;;;12.73;8.48;;;;;;;0.58;100.00;62060.94;4983259;28;20213;-73
2022/03/18 05:01:54;;;;;;;12.45;8.65;;;;;;;0.63;100.00;62068.56;5007865;28;20261;-73
2022/03/18 05:04:21;;;;;;;10.45;8.27;;;;;;;0.36;100.00;62037.88;5027642;28;20434;-73
2022/03/18 05:06:48;;;;;;;11.60;8.13;;;;;;;0.25;100.00;62024.59;5031201;28;20223;-74
2022/03/18 05:09:15;;;;;;;8.88;7.93;;;;;;;0.41;100.00;62046.00;5030037;28;20230;-73
2022/03/18 05:11:44;;;;;;;11.75;8.85;;;;;;;0.47;100.00;62049.66;5029997;28;20218;-73
2022/03/18 05:14:10;;;;;;;10.07;8.20;;;;;;;0.39;100.00;62045.94;5027057;28;20209;-72
2022/03/18 05:16:37;;;;;;;11.73;7.97;;;;;;;0.48;100.00;62052.66;5021640;28;20202;-72
2022/03/18 05:19:04;;;;;;;10.63;8.48;;;;;;;0.53;100.00;62055.81;5030093;28;20206;-72
2022/03/18 05:21:31;;;;;;;10.60;8.40;;;;;;;0.50;100.00;62052.22;5030896;28;20225;-72
2022/03/18 05:23:57;;;;;;;9.93;8.27;;;;;;;0.36;100.00;62040.88;5027789;28;20245;-72
2022/03/18 05:26:24;;;;;;;9.48;7.82;;;;;;;0.10;100.00;62016.72;5027421;28;20495;-73
2022/03/18 05:28:52;;;;;;;7.63;6.72;;;;;;;-0.07;100.00;61997.31;5020940;28;20270;-72
2022/03/18 05:31:19;;;;;;;11.73;8.18;;;;;;;0.02;100.00;62005.53;5030280;28;20329;-72
2022/03/18 05:33:46;;;;;;;7.78;6.45;;;;;;;-0.18;100.00;61986.06;5027174;28;20225;-73
2022/03/18 05:36:13;;;;;;;7.05;5.95;;;;;;;-0.34;100.00;61967.16;5026859;28;20226;-71
2022/03/18 05:38:39;;;;;;;9.90;6.68;;;;;;;-0.34;100.00;61962.16;5029800;28;20226;-72
2022/03/18 05:41:07;;;;;;;7.93;7.13;;;;;;;-0.42;100.00;61958.97;5028319;28;20203;-72
2022/03/18 05:43:34;;;;;;;7.93;7.15;;;;;;;-0.53;100.00;61950.19;5023236;28;20235;-72
2022/03/18 05:46:02;;;;;;;10.65;8.23;;;;;;;-0.49;100.00;61953.78;5028204;28;20241;-72
2022/03/18 05:48:29;;;;;;;12.15;8.02;;;;;;;-0.56;100.00;61947.13;5029018;28;20241;-72
2022/03/18 05:50:56;;;;;;;11.02;7.78;;;;;;;-0.55;100.00;61950.13;5028716;28;20195;-72
2022/03/18 05:53:23;;;;;;;8.75;7.07;;;;;;;-0.31;100.00;61965.22;5026600;28;20222;-72
2022/03/18 05:58:36;;;;;;;11.60;8.02;;;;;;;-0.01;100.00;62000.44;5026570;28;20281;-72
2022/03/18 06:01:04;;;;;;;14.57;7.85;;;;;;;0.16;100.00;62017.88;5026819;28;20199;-72
2022/03/18 06:03:31;;;;;;;12.10;7.53;;;;;;;0.20;100.00;62026.47;5021761;28;20254;-73
2022/03/18 06:05:57;;;;;;;12.68;7.47;;;;;;;0.29;100.00;62031.22;5012987;28;20271;-72
2022/03/18 06:13:58;;;;;;;8.80;6.43;;;;;;;0.34;100.00;62038.84;5009171;28;20213;-76
2022/03/18 06:16:26;;;;;;;7.97;6.57;;;;;;;0.42;100.00;62041.50;5024732;28;20203;-76
2022/03/18 06:18:54;;;;;;;9.48;7.60;;;;;;;0.62;100.00;62062.50;5034314;28;20207;-76
2022/03/18 06:21:22;;;;;;;7.97;6.68;;;;;;;0.70;100.00;62075.75;5031809;28;20428;-76
2022/03/18 06:23:49;;;;;;;10.13;6.82;;;;;;;0.84;100.00;62085.09;5017090;28;20206;-75
2022/03/18 06:26:16;;;;;;;6.72;6.03;;;;;;;1.02;100.00;62108.03;5007072;28;20234;-75
2022/03/18 06:28:43;;;;;;;7.97;6.07;;;;;;;0.97;100.00;62103.44;5026088;28;20248;-75
2022/03/18 06:31:10;;;;;;;10.35;7.53;;;;;;;1.03;99.97;62109.59;5015683;28;20199;-75
2022/03/18 06:33:43;;;;;;;10.10;7.90;;;;;;;1.14;99.81;62118.34;5020630;28;20222;-74
2022/03/18 06:36:10;;;;;;;8.68;6.97;;;;;;;1.31;99.30;62134.78;5025447;28;20206;-76
2022/03/18 06:38:37;;;;;;;6.07;5.43;;;;;;;1.26;96.24;62129.66;5023966;28;20293;-75
2022/03/18 06:41:04;;;;;;;6.72;5.63;;;;;;;1.19;95.68;62123.00;5023508;28;20226;-76
2022/03/18 06:43:30;;;;;;;6.93;6.20;;;;;;;1.30;95.50;62141.78;5026041;28;20543;-75
2022/03/18 06:45:57;;;;;;;5.78;5.22;;;;;;;1.21;92.78;62129.53;5030898;28;20210;-75
2022/03/18 06:48:25;;;;;;;6.70;5.63;;;;;;;1.34;92.70;62137.84;5022451;28;20242;-73
2022/03/18 06:50:53;;;;;;;6.13;5.50;;;;;;;1.22;90.59;62126.06;5023556;28;20207;-74
2022/03/18 06:53:20;;;;;;;6.35;5.72;;;;;;;1.11;89.07;62115.28;5023589;28;20222;-73
2022/03/18 06:55:46;;;;;;;7.75;5.55;;;;;;;1.09;90.22;62113.22;5021835;28;20213;-73
2022/03/18 06:58:13;;;;;;;7.80;5.47;;;;;;;1.00;90.02;62101.50;5021845;28;20277;-72
2022/03/18 07:00:40;;;;;;;6.55;5.85;;;;;;;1.06;91.52;62104.63;5023242;28;20226;-73
2022/03/18 07:03:07;;;;;;;5.82;5.22;;;;;;;1.07;91.02;62113.69;5023190;28;20570;-73
2022/03/18 07:05:34;;;;;;;7.80;6.50;;;;;;;1.16;93.05;62119.91;5020587;28;20245;-72
2022/03/18 07:08:02;;;;;;;7.05;5.88;;;;;;;1.42;94.58;62141.56;5030891;28;20289;-72
2022/03/18 07:10:29;;;;;;;6.22;5.63;;;;;;;1.37;91.67;62141.44;5021486;28;20198;-73
2022/03/18 07:12:56;;;;;;;6.53;5.25;;;;;;;1.24;90.23;62128.13;5022125;28;20450;-73
2022/03/18 07:15:23;;;;;;;6.65;5.72;;;;;;;1.28;89.73;62137.22;5022399;28;20250;-72
2022/03/18 07:17:55;;;;;;;7.07;5.85;;;;;;;1.32;89.55;62133.81;5023654;28;20304;-72
2022/03/18 07:20:22;;;;;;;6.47;5.75;;;;;;;1.45;91.51;62149.16;5027311;28;20298;-72
2022/03/18 07:23:02;;;;;;;6.25;5.65;;;;;;;1.82;93.47;62187.13;5026048;28;20226;-72
2022/03/18 07:25:29;;;;;;;6.25;5.65;;;;;;;2.22;92.87;62228.72;5030019;28;20491;-73
2022/03/18 07:27:56;;;;;;;6.65;4.95;;;;;;;2.22;87.36;62223.16;5027777;28;20219;-74
2022/03/18 07:30:22;;;;;;;8.50;5.03;;;;;;;2.22;87.59;62223.69;5027285;28;20567;-74
2022/03/18 07:32:49;;;;;;;8.70;5.85;;;;;;;2.28;89.95;62234.88;5042051;28;20566;-73
2022/03/18 07:35:16;;;;;;;7.30;5.97;;;;;;;2.06;86.01;62214.28;5047230;28;20202;-72
2022/03/18 07:37:43;;;;;;;6.25;5.63;;;;;;;2.01;89.09;62209.13;5028016;28;20215;-73
2022/03/18 07:40:12;;;;;;;5.90;5.38;;;;;;;1.74;85.24;62179.44;5039365;28;20198;-74
2022/03/18 07:42:43;;;;;;;6.28;5.18;;;;;;;1.80;87.21;62185.06;5026688;28;20250;-72
2022/03/18 07:45:11;;;;;;;7.15;5.22;;;;;;;1.61;84.44;62168.06;5025321;28;20244;-74
2022/03/18 07:47:38;;;;;;;10.57;6.63;;;;;;;1.54;83.74;62158.88;5024682;28;20230;-73
2022/03/18 07:50:06;;;;;;;9.27;6.20;;;;;;;1.44;84.59;62148.63;5027767;28;20234;-73
2022/03/18 07:52:33;;;;;;;7.50;5.28;;;;;;;1.60;87.09;62162.03;5025074;28;20214;-73
2022/03/18 07:55:00;;;;;;;7.32;6.03;;;;;;;1.85;89.65;62190.72;5025530;28;20244;-76
2022/03/18 07:57:28;;;;;;;7.03;5.63;;;;;;;1.75;84.88;62180.44;5025683;28;20294;-73
2022/03/18 07:59:55;;;;;;;8.73;5.47;;;;;;;1.87;85.21;62195.28;5025951;28;20206;-73
2022/03/18 08:02:22;;;;;;;6.18;4.97;;;;;;;1.84;84.98;62192.19;5026086;28;20535;-73
2022/03/18 08:04:52;;;;;;;7.45;5.88;;;;;;;1.79;83.02;62184.03;5026049;28;20520;-71
2022/03/18 08:07:20;;;;;;;6.13;5.63;;;;;;;1.89;85.44;62196.81;5026505;28;20254;-73
2022/03/18 08:09:47;;;;;;;6.93;5.53;;;;;;;1.94;85.37;62196.94;5026120;28;20265;-72
2022/03/18 08:12:15;;;;;;;10.05;5.55;;;;;;;1.84;83.71;62189.16;5025885;28;20248;-72
2022/03/18 08:14:43;;;;;;;5.85;5.25;;;;;;;1.61;83.47;62165.56;5025917;28;20253;-72
2022/03/18 08:17:10;;;;;;;7.13;6.35;;;;;;;1.53;83.92;62159.88;5025800;28;20222;-72
2022/03/18 08:19:37;;;;;;;7.47;5.47;;;;;;;1.50;84.94;62154.78;5025900;28;20207;-72
2022/03/18 08:22:04;;;;;;;5.38;4.88;;;;;;;1.25;83.95;62128.63;5025323;28;20222;-74
2022/03/18 08:24:32;;;;;;;5.22;4.75;;;;;;;1.38;86.30;62142.47;5025794;28;20222;-73
2022/03/18 08:26:59;;;;;;;6.97;6.28;;;;;;;1.68;86.88;62175.78;5025270;28;20215;-72
2022/03/18 08:29:26;;;;;;;6.05;5.28;;;;;;;1.68;84.22;62172.75;5025308;28;20234;-73
2022/03/18 08:31:54;;;;;;;5.50;5.00;;;;;;;1.64;87.60;62169.16;5025805;28;20222;-72
2022/03/18 08:34:21;;;;;;;9.30;5.75;;;;;;;2.04;88.84;62209.69;5017403;28;20199;-72
2022/03/18 08:36:48;;;;;;;8.90;5.82;;;;;;;2.29;86.40;62235.38;5005778;28;20223;-72
2022/03/18 08:39:16;;;;;;;9.05;6.65;;;;;;;2.62;82.33;62266.78;5006056;28;20435;-73
2022/03/18 08:41:42;;;;;;;5.85;5.25;;;;;;;2.33;78.60;62242.00;5025387;28;20279;-73
2022/03/18 08:44:09;;;;;;;6.25;4.97;;;;;;;2.42;78.23;62243.72;5026523;28;20206;-73
2022/03/18 08:46:36;;;;;;;5.13;4.63;;;;;;;2.55;79.15;62262.09;5030797;28;20206;-72
2022/03/18 08:49:05;;;;;;;5.45;4.80;;;;;;;2.73;78.81;62280.06;5028382;28;20289;-73
2022/03/18 08:51:32;;;;;;;5.18;4.78;;;;;;;2.91;80.97;62303.59;5026886;28;20197;-73
2022/03/18 08:53:59;;;;;;;5.20;4.70;;;;;;;2.99;75.86;62309.81;5025727;28;20218;-72
2022/03/18 08:56:26;;;;;;;5.50;4.85;;;;;;;2.63;70.13;62274.81;5025372;28;20203;-73
2022/03/18 08:58:52;;;;;;;6.18;5.55;;;;;;;2.49;72.63;62260.94;5025339;28;20426;-73
2022/03/18 09:01:19;;;;;;;5.18;4.60;;;;;;;2.60;75.90;62272.25;5025238;28;20198;-73
2022/03/18 09:03:47;;;;;;;5.10;4.75;;;;;;;2.50;74.72;62256.97;5025162;28;20215;-72
2022/03/18 09:06:15;;;;;;;5.20;4.57;;;;;;;2.72;72.77;62282.06;5024776;28;20269;-73
2022/03/18 09:08:42;;;;;;;7.40;5.22;;;;;;;2.87;75.35;62297.47;5024999;28;20241;-73
2022/03/18 09:11:09;;;;;;;5.20;4.80;;;;;;;3.19;74.81;62324.84;5024904;28;20252;-73
2022/03/18 09:13:36;;;;;;;7.18;5.18;;;;;;;3.38;72.76;62349.91;5024779;28;20234;-74
2022/03/18 09:16:04;;;;;;;5.25;4.75;;;;;;;3.56;69.31;62365.38;5025019;28;20246;-73
2022/03/18 09:18:31;;;;;;;7.13;5.03;;;;;;;3.77;68.34;62386.47;5024820;28;20219;-74
2022/03/18 09:20:58;;;;;;;5.82;5.00;;;;;;;3.63;65.46;62377.63;5024790;28;20203;-74
2022/03/18 09:23:27;;;;;;;6.03;4.80;;;;;;;3.91;65.81;62403.91;5025092;28;20242;-74
2022/03/18 09:25:54;;;;;;;4.80;4.32;;;;;;;4.17;61.58;62430.66;5025011;28;20202;-75
2022/03/18 09:28:21;;;;;;;6.07;5.13;;;;;;;4.14;59.33;62427.56;5025444;28;20293;-74
2022/03/18 09:30:49;;;;;;;5.05;4.55;;;;;;;4.02;59.33;62415.19;5025241;28;20234;-75
2022/03/18 09:33:16;;;;;;;6.28;5.30;;;;;;;4.20;58.59;62433.22;5024497;28;20217;-74
2022/03/18 09:35:43;;;;;;;6.15;5.55;;;;;;;3.92;53.23;62401.91;5025347;28;20203;-73
2022/03/18 09:38:10;;;;;;;8.60;4.75;;;;;;;3.73;54.21;62385.38;5024634;28;20281;-73
2022/03/18 09:40:41;;;;;;;5.40;4.90;;;;;;;3.56;53.42;62365.38;5024563;28;20205;-74
2022/03/18 09:43:09;;;;;;;5.35;4.85;;;;;;;3.48;54.99;62359.69;5032342;28;20225;-73
2022/03/18 09:45:38;;;;;;;8.00;5.53;;;;;;;3.43;57.61;62349.50;5025722;28;20561;-73
2022/03/18 09:48:07;;;;;;;12.50;5.47;;;;;;;3.44;57.46;62353.56;5024858;28;20219;-72
2022/03/18 09:50:35;;;;;;;8.00;5.32;;;;;;;3.43;58.30;62349.50;5024754;28;20226;-74
2022/03/18 09:53:02;;;;;;;6.32;4.70;;;;;;;2.80;52.35;62292.28;5024292;28;20221;-74
2022/03/18 09:55:30;;;;;;;8.10;6.13;;;;;;;3.11;57.73;62322.16;5024554;28;20409;-73
2022/03/18 09:57:59;;;;;;;5.85;5.25;;;;;;;3.33;57.49;62344.25;5024280;28;20238;-74
2022/03/18 10:00:25;;;;;;;6.57;5.85;;;;;;;3.68;55.25;62377.72;5025314;28;20201;-74
2022/03/18 10:03:08;;;;;;;6.10;5.18;;;;;;;4.06;53.04;62419.31;5023989;28;20218;-73
2022/03/18 10:05:36;;;;;;;5.95;5.35;;;;;;;4.38;53.56;62452.25;5024699;28;20226;-75
2022/03/18 10:08:03;;;;;;;5.47;4.97;;;;;;;4.79;53.10;62493.44;5024848;28;20223;-75
2022/03/18 10:10:30;;;;;;;6.28;5.72;;;;;;;5.15;56.19;62527.97;5024143;28;20268;-73
2022/03/18 10:13:01;;;;;;;6.32;5.35;;;;;;;4.42;49.70;62448.81;5023895;28;20214;-72
2022/03/18 10:15:28;;;;;;;6.40;5.45;;;;;;;4.34;49.65;62445.63;5023499;28;20512;-72
2022/03/18 10:17:57;;;;;;;5.15;4.70;;;;;;;4.34;49.84;62445.63;5022799;28;20410;-73
2022/03/18 10:20:26;;;;;;;6.90;4.88;;;;;;;4.59;51.58;62473.88;5023822;28;20527;-72
2022/03/18 10:22:54;;;;;;;7.78;5.78;;;;;;;5.12;52.49;62524.88;5023368;28;20548;-74
2022/03/18 10:25:41;;;;;;;7.82;5.97;;;;;;;5.25;47.65;62541.31;5023299;28;20401;-73
2022/03/18 10:28:11;;;;;;;5.75;4.65;;;;;;;5.07;47.04;62517.22;5017132;28;20225;-73
2022/03/18 10:30:39;;;;;;;5.60;4.78;;;;;;;4.75;47.25;62487.31;5023736;28;20262;-73
2022/03/18 10:33:06;;;;;;;5.50;4.95;;;;;;;4.64;49.92;62478.50;5022995;28;20215;-73
2022/03/18 10:38:32;;;;;;;7.10;5.43;;;;;;;4.81;50.65;62490.44;5023160;28;20229;-72
2022/03/18 10:41:01;;;;;;;6.50;5.38;;;;;;;5.04;50.98;62519.19;5023402;28;20201;-73
2022/03/18 10:43:29;;;;;;;6.68;5.03;;;;;;;4.59;47.97;62468.81;5023128;28;20218;-73
2022/03/18 10:46:06;;;;;;;6.00;5.32;;;;;;;4.91;48.70;62511.34;5023247;28;20206;-73
2022/03/18 10:48:33;;;;;;;6.88;5.00;;;;;;;4.93;48.42;62503.31;5022945;28;20241;-72
2022/03/18 10:51:06;;;;;;;5.63;4.88;;;;;;;4.86;46.02;62500.63;5023342;28;20230;-73
2022/03/18 10:53:34;;;;;;;7.60;5.70;;;;;;;5.28;49.15;62541.38;5026600;28;20385;-72
2022/03/18 10:56:03;;;;;;;4.97;4.55;;;;;;;5.14;46.18;62524.94;5027139;28;20519;-72
2022/03/18 10:58:33;;;;;;;4.68;4.28;;;;;;;5.26;48.08;62541.84;5027034;28;20225;-72
2022/03/18 11:01:03;;;;;;;4.70;4.07;;;;;;;5.78;48.15;62592.88;5028009;28;20226;-73
2022/03/18 11:03:32;;;;;;;5.03;4.53;;;;;;;5.22;45.36;62540.75;5027543;28;20230;-74
2022/03/18 11:06:02;;;;;;;5.68;4.20;;;;;;;5.57;44.70;62576.28;5007705;28;20242;-72
2022/03/18 11:08:35;;;;;;;5.70;5.07;;;;;;;5.77;45.28;62594.38;5018006;28;20218;-72
2022/03/18 11:11:07;;;;;;;9.55;4.55;;;;;;;5.70;46.90;62587.66;5026390;28;20530;-72
2022/03/18 11:13:49;;;;;;;9.30;5.75;;;;;;;5.53;48.42;62567.63;5026957;28;20227;-72
2022/03/18 11:16:21;;;;;;;7.85;4.85;;;;;;;5.61;47.40;62575.34;5026992;28;20233;-73
2022/03/18 11:18:49;;;;;;;4.40;4.03;;;;;;;5.79;46.38;62594.44;5028125;28;20225;-73
2022/03/18 11:21:17;;;;;;;5.97;5.03;;;;;;;5.69;46.56;62586.13;5028648;28;20194;-73
2022/03/18 11:23:45;;;;;;;6.45;5.85;;;;;;;6.05;46.17;62620.19;5027563;28;20230;-73
2022/03/18 11:26:14;;;;;;;9.18;6.18;;;;;;;6.06;43.34;62621.25;5026653;28;20205;-71
2022/03/18 11:28:43;;;;;;;6.85;4.85;;;;;;;5.50;46.38;62562.03;5026410;28;20210;-73
2022/03/18 11:31:11;;;;;;;6.25;5.25;;;;;;;5.61;46.44;62577.88;5026223;28;20264;-73
2022/03/18 11:33:38;;;;;;;8.45;6.32;;;;;;;5.35;46.78;62546.56;5026413;28;20443;-73
2022/03/18 11:36:16;;;;;;;6.95;4.53;;;;;;;5.32;45.79;62551.03;5026291;28;20253;-72
2022/03/18 11:39:08;;;;;;;6.55;5.28;;;;;;;5.28;46.81;62544.41;5025629;28;20395;-72
2022/03/18 11:41:52;;;;;;;4.88;4.50;;;;;;;5.42;47.06;62555.78;5026332;28;20382;-74
2022/03/18 11:44:40;;;;;;;11.07;4.47;;;;;;;5.38;43.87;62554.72;5027019;28;20198;-72
2022/03/18 11:47:46;;;;;;;5.05;4.43;;;;;;;5.23;43.83;62536.72;5026534;28;20285;-72
2022/03/18 11:50:43;;;;;;;5.38;4.88;;;;;;;5.83;47.78;62595.53;5026240;28;20237;-72
2022/03/18 11:53:14;;;;;;;5.30;4.78;;;;;;;5.25;45.56;62536.25;5026927;28;20219;-71
2022/03/18 11:55:44;;;;;;;5.10;4.60;;;;;;;5.45;44.94;62559.38;5027148;28;20205;-74
2022/03/18 11:58:33;;;;;;;5.78;4.88;;;;;;;5.80;45.95;62587.88;5027220;28;20230;-72